createdAt,value
2018-08-14T00:00:57.946Z,100143.45
2018-08-14T00:03:27.890Z,100144.63
2018-08-14T00:05:57.719Z,100141.89
2018-08-14T00:08:27.544Z,100148.63
2018-08-14T00:10:57.287Z,100151.84
2018-08-14T00:13:27.212Z,100158.45
2018-08-14T00:15:57.224Z,100161.09
2018-08-14T00:18:27.157Z,100163.39
2018-08-14T00:20:57.666Z,100162.89
2018-08-14T00:23:27.815Z,100160.95
2018-08-14T00:25:57.938Z,100159.14
2018-08-14T00:28:27.986Z,100157.57
2018-08-14T00:30:57.953Z,100158.53
2018-08-14T00:33:28.984Z,100161.64
2018-08-14T00:35:59.398Z,100161.96
2018-08-14T00:38:29.313Z,100156.97
2018-08-14T00:40:59.278Z,100156.30
2018-08-14T00:43:29.786Z,100149.12
2018-08-14T00:46:00.370Z,100156.45
2018-08-14T00:48:30.616Z,100155.62
2018-08-14T00:51:00.397Z,100160.70
2018-08-14T00:53:31.693Z,100158.52
2018-08-14T00:56:01.664Z,100152.02
2018-08-14T00:58:33.200Z,100151.23
2018-08-14T01:01:03.203Z,100153.69
2018-08-14T01:03:33.630Z,100156.16
2018-08-14T01:06:04.197Z,100154.47
2018-08-14T01:08:34.238Z,100156.05
2018-08-14T01:11:04.914Z,100147.78
2018-08-14T01:13:35.458Z,100149.99
2018-08-14T01:16:05.943Z,100152.27
2018-08-14T01:18:36.535Z,100156.47
2018-08-14T01:21:06.411Z,100151.64
2018-08-14T01:23:36.293Z,100150.95
2018-08-14T01:26:06.234Z,100159.59
2018-08-14T01:28:35.989Z,100152.36
2018-08-14T01:31:06.329Z,100151.19
2018-08-14T01:33:36.945Z,100148.20
2018-08-14T01:36:06.918Z,100150.31
2018-08-14T01:38:37.471Z,100149.17
2018-08-14T01:41:07.384Z,100144.84
2018-08-14T01:43:37.110Z,100143.09
2018-08-14T01:46:07.141Z,100149.10
2018-08-14T01:48:37.534Z,100146.41
2018-08-14T01:51:07.636Z,100149.08
2018-08-14T01:53:37.589Z,100151.65
2018-08-14T01:56:09.098Z,100152.75
2018-08-14T01:58:39.015Z,100151.88
2018-08-14T02:01:08.911Z,100157.02
2018-08-14T02:03:38.769Z,100162.89
2018-08-14T02:06:08.538Z,100160.91
2018-08-14T02:08:38.716Z,100158.86
2018-08-14T02:11:15.662Z,100156.56
2018-08-14T02:17:45.246Z,100158.52
2018-08-14T02:20:19.758Z,100158.66
2018-08-14T02:22:50.808Z,100159.20
2018-08-14T02:25:20.667Z,100160.48
2018-08-14T02:27:50.806Z,100157.89
2018-08-14T02:30:21.186Z,100164.13
2018-08-14T02:35:51.262Z,100160.70
2018-08-14T02:38:21.114Z,100163.52
2018-08-14T02:40:50.882Z,100163.41
2018-08-14T02:43:20.801Z,100162.55
2018-08-14T02:45:50.702Z,100164.52
2018-08-14T02:48:20.678Z,100163.93
2018-08-14T02:50:50.568Z,100166.95
2018-08-14T02:53:20.469Z,100167.30
2018-08-14T02:55:50.219Z,100166.19
2018-08-14T02:58:28.733Z,100170.04
2018-08-14T03:01:12.211Z,100170.86
2018-08-14T03:03:42.102Z,100176.00
2018-08-14T03:06:17.257Z,100171.63
2018-08-14T03:08:47.158Z,100178.44
2018-08-14T03:11:17.207Z,100176.77
2018-08-14T03:13:57.975Z,100178.33
2018-08-14T03:16:28.031Z,100175.94
2018-08-14T03:18:57.890Z,100174.97
2018-08-14T03:21:27.823Z,100178.59
2018-08-14T03:23:57.753Z,100182.53
2018-08-14T03:26:30.285Z,100173.33
2018-08-14T03:29:00.326Z,100183.71
2018-08-14T03:31:30.083Z,100182.32
2018-08-14T03:33:59.850Z,100182.19
2018-08-14T03:36:35.122Z,100182.48
2018-08-14T03:39:09.270Z,100183.88
2018-08-14T03:41:43.130Z,100194.75
2018-08-14T03:44:13.160Z,100186.84
2018-08-14T03:46:42.874Z,100189.81
2018-08-14T03:49:15.472Z,100198.39
2018-08-14T03:51:45.301Z,100200.34
2018-08-14T03:54:15.182Z,100191.06
2018-08-14T03:56:46.798Z,100196.72
2018-08-14T03:59:16.766Z,100196.91
2018-08-14T04:01:51.920Z,100194.11
2018-08-14T04:04:21.831Z,100201.83
2018-08-14T04:06:51.859Z,100197.44
2018-08-14T04:09:21.630Z,100207.23
2018-08-14T04:11:51.396Z,100206.48
2018-08-14T04:14:24.201Z,100207.98
2018-08-14T04:16:54.125Z,100219.22
2018-08-14T04:19:24.073Z,100218.17
2018-08-14T04:21:56.455Z,100217.27
2018-08-14T04:24:26.426Z,100217.23
2018-08-14T04:26:56.161Z,100219.77
2018-08-14T04:29:27.723Z,100220.80
2018-08-14T04:31:57.578Z,100215.79
2018-08-14T04:34:27.410Z,100219.91
2018-08-14T04:36:57.288Z,100225.77
2018-08-14T04:39:27.194Z,100221.16
2018-08-14T04:41:57.085Z,100225.07
2018-08-14T04:44:26.835Z,100232.36
2018-08-14T04:46:56.840Z,100238.94
2018-08-14T04:49:26.642Z,100238.83
2018-08-14T04:51:56.770Z,100236.69
2018-08-14T04:54:26.540Z,100237.13
2018-08-14T04:56:56.436Z,100243.83
2018-08-14T04:59:29.542Z,100243.59
2018-08-14T05:02:01.038Z,100239.89
2018-08-14T05:04:35.829Z,100246.53
2018-08-14T05:07:06.466Z,100250.55
2018-08-14T05:09:36.230Z,100259.08
2018-08-14T05:12:06.189Z,100255.55
2018-08-14T05:14:36.032Z,100257.80
2018-08-14T05:17:07.208Z,100259.92
2018-08-14T05:19:37.497Z,100265.61
2018-08-14T05:22:07.338Z,100271.91
2018-08-14T05:24:37.251Z,100273.61
2018-08-14T05:27:07.117Z,100269.06
2018-08-14T05:29:36.923Z,100272.88
2018-08-14T05:32:13.272Z,100280.13
2018-08-14T05:34:43.422Z,100275.00
2018-08-14T05:37:13.268Z,100277.27
2018-08-14T05:39:45.199Z,100278.48
2018-08-14T05:42:17.810Z,100286.39
2018-08-14T05:44:47.750Z,100291.36
2018-08-14T05:47:17.854Z,100289.28
2018-08-14T05:49:48.063Z,100295.44
2018-08-14T05:52:17.867Z,100303.83
2018-08-14T05:54:47.966Z,100303.71
2018-08-14T05:57:17.818Z,100300.55
2018-08-14T06:00:05.075Z,100300.11
2018-08-14T06:02:35.034Z,100305.85
2018-08-14T06:05:08.170Z,100302.86
2018-08-14T06:08:06.413Z,100301.92
2018-08-14T06:10:36.281Z,100295.32
2018-08-14T06:15:53.200Z,100301.87
2018-08-14T06:18:23.225Z,100307.38
2018-08-14T06:24:35.261Z,100310.25
2018-08-14T06:27:05.198Z,100314.56
2018-08-14T06:29:35.107Z,100324.77
2018-08-14T06:32:04.996Z,100330.03
2018-08-14T06:37:21.698Z,100336.84
2018-08-14T06:39:51.874Z,100336.23
2018-08-14T06:42:21.810Z,100332.84
2018-08-14T06:44:51.766Z,100347.92
2018-08-14T06:47:22.199Z,100346.13
2018-08-14T06:50:09.111Z,100351.47
2018-08-14T06:52:39.085Z,100359.39
2018-08-14T06:55:10.345Z,100362.17
2018-08-14T06:57:41.621Z,100364.44
2018-08-14T07:00:16.931Z,100370.67
2018-08-14T07:07:49.976Z,100373.16
2018-08-14T07:11:08.017Z,100380.86
2018-08-14T07:13:37.894Z,100387.91
2018-08-14T07:16:07.906Z,100389.14
2018-08-14T07:18:37.803Z,100392.13
2018-08-14T07:21:07.862Z,100400.38
2018-08-14T07:24:07.299Z,100397.02
2018-08-14T07:26:37.405Z,100401.34
2018-08-14T07:29:07.502Z,100393.42
2018-08-14T07:31:37.485Z,100403.72
2018-08-14T07:37:05.725Z,100404.20
2018-08-14T07:39:36.491Z,100409.58
2018-08-14T07:42:06.910Z,100411.27
2018-08-14T07:44:36.714Z,100416.45
2018-08-14T07:47:06.995Z,100422.19
2018-08-14T07:49:36.978Z,100423.87
2018-08-14T07:52:07.072Z,100424.94
2018-08-14T07:54:38.273Z,100424.44
2018-08-14T07:57:08.316Z,100435.00
2018-08-14T07:59:38.122Z,100443.75
2018-08-14T08:02:08.484Z,100438.11
2018-08-14T08:04:38.790Z,100441.24
2018-08-14T08:07:08.916Z,100441.72
2018-08-14T08:09:39.637Z,100441.01
2018-08-14T08:12:09.958Z,100450.23
2018-08-14T08:14:39.902Z,100449.97
2018-08-14T08:17:09.780Z,100454.30
2018-08-14T08:19:39.841Z,100453.01
2018-08-14T08:22:09.903Z,100459.73
2018-08-14T08:24:40.119Z,100464.13
2018-08-14T08:27:10.227Z,100469.53
2018-08-14T08:29:40.291Z,100466.30
2018-08-14T08:32:10.318Z,100465.81
2018-08-14T08:34:40.175Z,100471.78
2018-08-14T08:37:09.947Z,100461.96
2018-08-14T08:39:39.997Z,100467.45
2018-08-14T08:42:10.835Z,100468.79
2018-08-14T08:44:41.352Z,100465.92
2018-08-14T08:47:11.240Z,100474.54
2018-08-14T08:49:40.970Z,100481.15
2018-08-14T08:52:11.877Z,100473.70
2018-08-14T08:54:41.883Z,100481.52
2018-08-14T08:57:11.850Z,100490.05
2018-08-14T08:59:41.662Z,100487.27
2018-08-14T09:02:11.809Z,100486.66
2018-08-14T09:04:41.770Z,100490.05
2018-08-14T09:07:11.648Z,100490.39
2018-08-14T09:09:41.735Z,100491.70
2018-08-14T09:12:11.836Z,100492.87
2018-08-14T09:14:42.575Z,100494.55
2018-08-14T09:17:13.216Z,100492.15
2018-08-14T09:19:43.363Z,100488.52
2018-08-14T09:22:13.478Z,100492.13
2018-08-14T09:24:43.498Z,100498.21
2018-08-14T09:27:13.532Z,100504.58
2018-08-14T09:29:43.361Z,100502.17
2018-08-14T09:32:13.235Z,100514.67
2018-08-14T09:34:43.310Z,100508.69
2018-08-14T09:37:13.447Z,100510.76
2018-08-14T09:39:43.500Z,100508.57
2018-08-14T09:42:13.595Z,100515.48
2018-08-14T09:44:45.365Z,100515.95
2018-08-14T09:47:15.446Z,100519.08
2018-08-14T09:49:45.350Z,100522.56
2018-08-14T09:52:15.369Z,100523.38
2018-08-14T09:54:46.770Z,100520.53
2018-08-14T09:57:20.160Z,100525.89
2018-08-14T09:59:50.394Z,100518.04
2018-08-14T10:02:26.377Z,100519.92
2018-08-14T10:06:02.071Z,100518.12
2018-08-14T10:08:32.126Z,100520.65
2018-08-14T10:11:02.784Z,100525.53
2018-08-14T10:13:34.261Z,100529.08
2018-08-14T10:16:04.241Z,100521.30
2018-08-14T10:18:34.223Z,100529.25
2018-08-14T10:21:04.209Z,100532.03
2018-08-14T10:26:16.091Z,100540.87
2018-08-14T10:28:46.016Z,100538.86
2018-08-14T10:31:16.234Z,100537.92
2018-08-14T10:33:46.112Z,100535.35
2018-08-14T10:36:16.035Z,100535.35
2018-08-14T10:38:46.189Z,100544.41
2018-08-14T10:41:16.413Z,100539.64
2018-08-14T10:43:47.830Z,100537.09
2018-08-14T10:46:17.775Z,100538.04
2018-08-14T10:48:47.814Z,100535.44
2018-08-14T10:51:17.759Z,100543.72
2018-08-14T10:53:47.799Z,100557.33
2018-08-14T10:56:17.826Z,100559.09
2018-08-14T10:58:47.873Z,100558.81
2018-08-14T11:01:17.689Z,100558.44
2018-08-14T11:03:49.112Z,100559.44
2018-08-14T11:06:19.286Z,100557.34
2018-08-14T11:08:49.270Z,100574.68
2018-08-14T11:11:19.567Z,100565.59
2018-08-14T11:13:49.984Z,100566.78
2018-08-14T11:16:46.384Z,100558.08
2018-08-14T11:19:16.336Z,100556.11
2018-08-14T11:22:27.899Z,100558.83
2018-08-14T11:24:57.938Z,100551.11
2018-08-14T11:27:27.855Z,100553.88
2018-08-14T11:29:57.871Z,100551.64
2018-08-14T11:32:27.836Z,100554.85
2018-08-14T11:35:29.486Z,100562.26
2018-08-14T11:38:15.178Z,100562.91
2018-08-14T11:44:40.011Z,100554.85
2018-08-14T11:47:10.030Z,100568.27
2018-08-14T11:49:40.195Z,100566.37
2018-08-14T11:55:33.930Z,100583.61
2018-08-14T11:58:04.006Z,100582.77
2018-08-14T12:00:33.991Z,100579.56
2018-08-14T12:03:03.904Z,100590.92
2018-08-14T12:05:33.774Z,100588.08
2018-08-14T12:08:07.264Z,100585.77
2018-08-14T12:10:37.219Z,100580.98
2018-08-14T12:13:07.228Z,100579.16
2018-08-14T12:15:37.090Z,100579.58
2018-08-14T12:18:06.878Z,100591.02
2018-08-14T12:20:36.934Z,100589.48
2018-08-14T12:23:06.804Z,100588.00
2018-08-14T12:25:36.611Z,100581.34
2018-08-14T12:28:06.926Z,100586.20
2018-08-14T12:30:41.005Z,100587.15
2018-08-14T12:33:10.763Z,100594.50
2018-08-14T12:38:30.960Z,100594.19
2018-08-14T12:41:00.879Z,100597.28
2018-08-14T12:43:30.688Z,100584.23
2018-08-14T12:46:00.502Z,100589.44
2018-08-14T12:48:37.050Z,100591.66
2018-08-14T12:51:34.408Z,100596.07
2018-08-14T12:54:04.298Z,100596.95
2018-08-14T12:56:34.085Z,100601.10
2018-08-14T12:59:11.802Z,100599.95
2018-08-14T13:01:41.908Z,100605.42
2018-08-14T13:04:37.985Z,100597.70
2018-08-14T13:07:08.115Z,100598.86
2018-08-14T13:10:08.174Z,100594.19
2018-08-14T13:12:42.318Z,100608.11
2018-08-14T13:15:13.930Z,100598.53
2018-08-14T13:17:52.290Z,100605.99
2018-08-14T13:20:22.442Z,100608.03
2018-08-14T13:22:52.194Z,100598.94
2018-08-14T13:25:22.157Z,100602.34
2018-08-14T13:28:14.314Z,100603.79
2018-08-14T13:34:14.307Z,100611.82
2018-08-14T13:36:44.173Z,100611.52
2018-08-14T13:39:13.989Z,100623.66
2018-08-14T13:41:44.126Z,100623.83
2018-08-14T13:44:13.994Z,100622.70
2018-08-14T13:46:56.900Z,100625.62
2018-08-14T13:49:26.756Z,100619.22
2018-08-14T13:51:56.902Z,100630.81
2018-08-14T13:54:26.950Z,100626.84
2018-08-14T13:56:56.910Z,100629.38
2018-08-14T13:59:51.480Z,100630.46
2018-08-14T14:02:21.424Z,100625.73
2018-08-14T14:04:51.426Z,100633.28
2018-08-14T14:07:21.550Z,100641.16
2018-08-14T14:09:51.391Z,100628.16
2018-08-14T14:12:21.203Z,100632.90
2018-08-14T14:14:57.337Z,100638.42
2018-08-14T14:17:27.160Z,100640.29
2018-08-14T14:19:57.190Z,100640.23
2018-08-14T14:22:28.438Z,100628.94
2018-08-14T14:25:26.735Z,100638.38
2018-08-14T14:27:56.752Z,100633.73
2018-08-14T14:30:31.099Z,100642.45
2018-08-14T14:33:00.964Z,100647.53
2018-08-14T14:35:31.048Z,100646.94
2018-08-14T14:38:01.076Z,100642.41
2018-08-14T14:40:31.184Z,100639.57
2018-08-14T14:43:03.609Z,100641.70
2018-08-14T14:45:38.315Z,100644.09
2018-08-14T14:48:08.385Z,100643.84
2018-08-14T14:50:38.410Z,100636.38
2018-08-14T14:53:15.392Z,100653.45
2018-08-14T14:55:45.312Z,100652.98
2018-08-14T14:58:15.637Z,100656.48
2018-08-14T15:00:45.679Z,100653.30
2018-08-14T15:03:15.709Z,100649.63
2018-08-14T15:05:45.451Z,100662.11
2018-08-14T15:08:15.274Z,100658.09
2018-08-14T15:10:45.583Z,100662.83
2018-08-14T15:13:16.015Z,100656.64
2018-08-14T15:15:45.900Z,100665.28
2018-08-14T15:18:15.771Z,100666.61
2018-08-14T15:20:45.542Z,100664.37
2018-08-14T15:23:15.551Z,100659.02
2018-08-14T15:25:45.475Z,100658.37
2018-08-14T15:29:19.278Z,100668.56
2018-08-14T15:32:02.382Z,100678.31
2018-08-14T15:34:33.602Z,100675.34
2018-08-14T15:37:07.838Z,100672.91
2018-08-14T15:39:37.928Z,100670.97
2018-08-14T15:42:08.456Z,100671.57
2018-08-14T15:44:38.444Z,100666.02
2018-08-14T15:47:08.324Z,100675.52
2018-08-14T15:49:38.530Z,100676.59
2018-08-14T15:52:08.207Z,100674.20
2018-08-14T15:54:38.048Z,100679.05
2018-08-14T15:57:08.132Z,100681.23
2018-08-14T15:59:38.091Z,100685.48
2018-08-14T16:02:08.035Z,100680.58
2018-08-14T16:04:38.025Z,100687.08
2018-08-14T16:07:08.197Z,100684.81
2018-08-14T16:09:38.891Z,100689.38
2018-08-14T16:12:08.870Z,100688.13
2018-08-14T16:14:38.744Z,100682.42
2018-08-14T16:17:09.730Z,100683.47
2018-08-14T16:19:39.855Z,100682.18
2018-08-14T16:22:10.043Z,100686.88
2018-08-14T16:24:40.149Z,100689.33
2018-08-14T16:27:13.373Z,100683.29
2018-08-14T16:29:43.458Z,100700.94
2018-08-14T16:32:13.470Z,100702.14
2018-08-14T16:34:43.438Z,100697.09
2018-08-14T16:37:13.494Z,100700.14
2018-08-14T16:39:43.454Z,100703.30
2018-08-14T16:42:13.978Z,100712.62
2018-08-14T16:44:44.154Z,100712.28
2018-08-14T16:47:14.061Z,100712.30
2018-08-14T16:49:44.013Z,100725.05
2018-08-14T16:52:13.867Z,100719.34
2018-08-14T16:54:43.747Z,100719.83
2018-08-14T16:57:13.454Z,100721.32
2018-08-14T16:59:43.479Z,100722.36
2018-08-14T17:02:13.546Z,100724.97
2018-08-14T17:04:43.502Z,100724.09
2018-08-14T17:07:13.544Z,100722.41
2018-08-14T17:09:43.745Z,100724.53
2018-08-14T17:12:13.748Z,100725.48
2018-08-14T17:14:43.854Z,100721.91
2018-08-14T17:17:13.787Z,100729.17
2018-08-14T17:19:41.765Z,100730.90
2018-08-14T17:22:11.595Z,100734.77
2018-08-14T17:24:41.675Z,100729.31
2018-08-14T17:27:11.517Z,100725.05
2018-08-14T17:29:41.582Z,100728.13
2018-08-14T17:32:11.590Z,100735.17
2018-08-14T17:34:41.539Z,100741.17
2018-08-14T17:37:11.531Z,100735.27
2018-08-14T17:39:41.537Z,100734.86
2018-08-14T17:42:11.406Z,100743.39
2018-08-14T17:44:41.426Z,100748.20
2018-08-14T17:47:11.264Z,100748.44
2018-08-14T17:49:41.310Z,100749.57
2018-08-14T17:52:11.211Z,100758.87
2018-08-14T17:54:41.173Z,100759.34
2018-08-14T17:57:11.076Z,100762.28
2018-08-14T17:59:41.075Z,100762.09
2018-08-14T18:02:11.674Z,100759.92
2018-08-14T18:04:41.810Z,100766.91
2018-08-14T18:07:11.850Z,100771.70
2018-08-14T18:09:41.848Z,100778.77
2018-08-14T18:12:11.973Z,100781.72
2018-08-14T18:14:42.029Z,100781.30
2018-08-14T18:17:12.084Z,100783.92
2018-08-14T18:19:42.090Z,100784.59
2018-08-14T18:22:12.138Z,100790.40
2018-08-14T18:24:42.154Z,100799.47
2018-08-14T18:27:12.189Z,100803.19
2018-08-14T18:29:42.235Z,100800.50
2018-08-14T18:32:12.351Z,100807.28
2018-08-14T18:34:42.378Z,100807.34
2018-08-14T18:37:12.458Z,100809.56
2018-08-14T18:39:42.467Z,100813.92
2018-08-14T18:42:12.428Z,100814.91
2018-08-14T18:44:42.481Z,100825.77
2018-08-14T18:47:12.299Z,100827.94
2018-08-14T18:49:42.384Z,100829.56
2018-08-14T18:52:12.419Z,100830.48
2018-08-14T18:54:42.474Z,100827.86
2018-08-14T18:57:12.559Z,100832.27
2018-08-14T18:59:42.511Z,100841.79
2018-08-14T19:02:12.562Z,100845.37
2018-08-14T19:04:42.452Z,100842.89
2018-08-14T19:07:12.406Z,100853.06
2018-08-14T19:09:42.488Z,100853.35
2018-08-14T19:12:12.441Z,100857.93
2018-08-14T19:14:42.433Z,100857.48
2018-08-14T19:17:12.426Z,100865.65
2018-08-14T19:19:42.216Z,100866.73
2018-08-14T19:22:12.223Z,100872.97
2018-08-14T19:24:43.566Z,100870.39
2018-08-14T19:27:13.474Z,100869.58
2018-08-14T19:29:43.274Z,100875.94
2018-08-14T19:32:13.065Z,100875.70
2018-08-14T19:34:42.847Z,100875.10
2018-08-14T19:37:12.678Z,100887.70
2018-08-14T19:39:42.462Z,100893.20
2018-08-14T19:42:12.763Z,100893.15
2018-08-14T19:44:42.531Z,100892.47
2018-08-14T19:47:12.562Z,100898.22
2018-08-14T19:49:42.471Z,100897.24
2018-08-14T19:52:12.512Z,100906.84
2018-08-14T19:54:42.338Z,100910.14
2018-08-14T19:57:12.328Z,100912.56
2018-08-14T19:59:42.398Z,100914.91
2018-08-14T20:02:12.299Z,100918.95
2018-08-14T20:04:42.336Z,100903.91
2018-08-14T20:07:12.181Z,100909.43
2018-08-14T20:09:41.919Z,100914.14
2018-08-14T20:12:11.659Z,100914.20
2018-08-14T20:14:41.522Z,100920.11
2018-08-14T20:17:11.447Z,100924.81
2018-08-14T20:19:41.355Z,100922.83
2018-08-14T20:22:17.091Z,100927.91
2018-08-14T20:24:47.366Z,100926.34
2018-08-14T20:27:17.366Z,100930.46
2018-08-14T20:29:47.152Z,100932.56
2018-08-14T20:32:17.182Z,100931.16
2018-08-14T20:34:47.020Z,100928.56
2018-08-14T20:37:17.444Z,100929.91
2018-08-14T20:39:47.547Z,100936.13
2018-08-14T20:42:17.378Z,100937.40
2018-08-14T20:44:47.422Z,100931.50
2018-08-14T20:47:17.299Z,100930.66
2018-08-14T20:49:47.298Z,100934.58
2018-08-14T20:52:17.292Z,100934.58
2018-08-14T20:54:47.397Z,100940.37
2018-08-14T20:57:17.524Z,100925.61
2018-08-14T20:59:47.422Z,100924.87
2018-08-14T21:02:17.526Z,100919.41
2018-08-14T21:04:47.320Z,100922.50
2018-08-14T21:07:17.435Z,100930.04
2018-08-14T21:09:47.540Z,100929.07
2018-08-14T21:12:26.814Z,100924.19
2018-08-14T21:14:57.110Z,100929.61
2018-08-14T21:17:27.046Z,100930.39
2018-08-14T21:19:57.011Z,100934.98
2018-08-14T21:22:27.022Z,100933.94
2018-08-14T21:24:56.974Z,100933.11
2018-08-14T21:27:26.986Z,100932.75
2018-08-14T21:29:57.447Z,100938.11
2018-08-14T21:32:27.525Z,100943.47
2018-08-14T21:34:57.441Z,100944.98
2018-08-14T21:37:27.685Z,100949.80
2018-08-14T21:39:57.632Z,100944.59
2018-08-14T21:42:27.777Z,100949.02
2018-08-14T21:44:57.922Z,100948.87
2018-08-14T21:47:27.898Z,100956.19
2018-08-14T21:49:57.851Z,100956.75
2018-08-14T21:52:27.730Z,100953.10
2018-08-14T21:54:57.730Z,100964.55
2018-08-14T21:57:27.619Z,100963.51
2018-08-14T21:59:57.739Z,100969.51
2018-08-14T22:02:27.679Z,100969.83
2018-08-14T22:04:57.498Z,100977.62
2018-08-14T22:07:27.604Z,100969.27
2018-08-14T22:09:57.438Z,100973.00
2018-08-14T22:12:27.540Z,100979.69
2018-08-14T22:14:57.349Z,100982.63
2018-08-14T22:17:28.254Z,100989.55
2018-08-14T22:19:58.110Z,100992.77
2018-08-14T22:22:28.155Z,100991.03
2018-08-14T22:24:58.301Z,100999.05
2018-08-14T22:27:28.178Z,100991.71
2018-08-14T22:29:58.338Z,100985.58
2018-08-14T22:32:28.422Z,100989.58
2018-08-14T22:34:58.206Z,100989.37
2018-08-14T22:37:27.925Z,100996.84
2018-08-14T22:39:57.825Z,100994.67
2018-08-14T22:42:27.827Z,100992.17
2018-08-14T22:44:57.981Z,100982.60
2018-08-14T22:47:27.973Z,100994.49
2018-08-14T22:49:57.783Z,100999.77
2018-08-14T22:52:27.979Z,101001.07
2018-08-14T22:54:57.921Z,101002.42
2018-08-14T22:57:27.858Z,101006.04
2018-08-14T22:59:57.779Z,101005.67
2018-08-14T23:02:27.659Z,101010.10
2018-08-14T23:04:57.594Z,101005.55
2018-08-14T23:07:27.394Z,101000.97
2018-08-14T23:09:57.717Z,101007.24
2018-08-14T23:12:27.794Z,101005.91
2018-08-14T23:14:57.751Z,101011.34
2018-08-14T23:17:27.551Z,101009.91
2018-08-14T23:19:57.826Z,101016.75
2018-08-14T23:22:27.577Z,101014.67
2018-08-14T23:24:57.618Z,101014.72
2018-08-14T23:27:27.623Z,101020.57
2018-08-14T23:29:57.577Z,101023.97
2018-08-14T23:32:27.504Z,101024.42
2018-08-14T23:34:57.424Z,101029.36
2018-08-14T23:37:27.237Z,101029.03
2018-08-14T23:39:57.424Z,101025.58
2018-08-14T23:42:27.456Z,101024.98
2018-08-14T23:44:57.642Z,101020.43
2018-08-14T23:47:27.639Z,101020.64
2018-08-14T23:49:57.630Z,101021.34
2018-08-14T23:52:27.789Z,101024.89
2018-08-14T23:54:57.678Z,101019.34
2018-08-14T23:57:27.707Z,101016.48
2018-08-14T23:59:57.749Z,101025.02
